sensor_id;sensor_type;location;lat;lon;timestamp;P1;durP1;ratioP1;P2;durP2;ratioP2
17814;SDS011;9031;50.974;11.330;2023-04-29T00:00:50;6.43;;;5.83;;
17814;SDS011;9031;50.974;11.330;2023-04-29T00:03:16;6.57;;;5.97;;
17814;SDS011;9031;50.974;11.330;2023-04-29T00:05:42;7.47;;;6.43;;
17814;SDS011;9031;50.974;11.330;2023-04-29T00:08:08;6.80;;;6.17;;
17814;SDS011;9031;50.974;11.330;2023-04-29T00:10:34;8.93;;;6.50;;
17814;SDS011;9031;50.974;11.330;2023-04-29T00:13:00;7.07;;;6.43;;
17814;SDS011;9031;50.974;11.330;2023-04-29T00:15:26;6.53;;;5.93;;
17814;SDS011;9031;50.974;11.330;2023-04-29T00:17:52;7.00;;;6.37;;
17814;SDS011;9031;50.974;11.330;2023-04-29T00:20:17;7.63;;;6.70;;
17814;SDS011;9031;50.974;11.330;2023-04-29T00:22:43;7.27;;;6.57;;
17814;SDS011;9031;50.974;11.330;2023-04-29T00:25:09;7.27;;;6.67;;
17814;SDS011;9031;50.974;11.330;2023-04-29T00:27:34;6.80;;;6.13;;
17814;SDS011;9031;50.974;11.330;2023-04-29T00:30:00;7.50;;;6.80;;
17814;SDS011;9031;50.974;11.330;2023-04-29T00:32:25;8.40;;;7.60;;
17814;SDS011;9031;50.974;11.330;2023-04-29T00:34:51;9.50;;;8.03;;
17814;SDS011;9031;50.974;11.330;2023-04-29T00:37:17;8.40;;;7.60;;
17814;SDS011;9031;50.974;11.330;2023-04-29T00:39:42;8.37;;;7.57;;
17814;SDS011;9031;50.974;11.330;2023-04-29T00:42:08;8.70;;;7.90;;
17814;SDS011;9031;50.974;11.330;2023-04-29T00:44:34;9.40;;;8.17;;
17814;SDS011;9031;50.974;11.330;2023-04-29T00:46:59;12.63;;;8.90;;
17814;SDS011;9031;50.974;11.330;2023-04-29T00:49:25;9.40;;;8.53;;
17814;SDS011;9031;50.974;11.330;2023-04-29T00:51:51;9.20;;;8.30;;
17814;SDS011;9031;50.974;11.330;2023-04-29T00:54:18;10.03;;;9.03;;
17814;SDS011;9031;50.974;11.330;2023-04-29T00:56:44;9.47;;;8.57;;
17814;SDS011;9031;50.974;11.330;2023-04-29T00:59:11;9.87;;;8.80;;
17814;SDS011;9031;50.974;11.330;2023-04-29T01:01:39;9.80;;;8.90;;
17814;SDS011;9031;50.974;11.330;2023-04-29T01:04:05;9.73;;;8.73;;
17814;SDS011;9031;50.974;11.330;2023-04-29T01:09:18;10.53;;;9.53;;
17814;SDS011;9031;50.974;11.330;2023-04-29T01:12:10;9.47;;;8.67;;
17814;SDS011;9031;50.974;11.330;2023-04-29T01:15:04;9.90;;;8.90;;
17814;SDS011;9031;50.974;11.330;2023-04-29T01:17:55;9.33;;;8.40;;
17814;SDS011;9031;50.974;11.330;2023-04-29T01:20:24;9.77;;;8.87;;
17814;SDS011;9031;50.974;11.330;2023-04-29T01:22:51;10.87;;;9.87;;
17814;SDS011;9031;50.974;11.330;2023-04-29T01:25:16;9.70;;;8.80;;
17814;SDS011;9031;50.974;11.330;2023-04-29T01:27:46;12.00;;;10.33;;
17814;SDS011;9031;50.974;11.330;2023-04-29T01:33:09;10.63;;;9.53;;
17814;SDS011;9031;50.974;11.330;2023-04-29T01:35:59;10.40;;;9.23;;
17814;SDS011;9031;50.974;11.330;2023-04-29T01:41:15;10.27;;;9.27;;
17814;SDS011;9031;50.974;11.330;2023-04-29T01:43:48;10.90;;;9.90;;
17814;SDS011;9031;50.974;11.330;2023-04-29T01:46:16;10.33;;;9.33;;
17814;SDS011;9031;50.974;11.330;2023-04-29T01:48:44;10.67;;;9.57;;
17814;SDS011;9031;50.974;11.330;2023-04-29T01:51:10;11.13;;;9.43;;
17814;SDS011;9031;50.974;11.330;2023-04-29T01:53:36;10.50;;;9.60;;
17814;SDS011;9031;50.974;11.330;2023-04-29T01:56:04;10.07;;;8.93;;
17814;SDS011;9031;50.974;11.330;2023-04-29T01:58:30;11.67;;;10.43;;
17814;SDS011;9031;50.974;11.330;2023-04-29T02:00:56;11.07;;;9.90;;
17814;SDS011;9031;50.974;11.330;2023-04-29T02:03:21;11.57;;;10.33;;
17814;SDS011;9031;50.974;11.330;2023-04-29T02:05:47;10.90;;;9.90;;
17814;SDS011;9031;50.974;11.330;2023-04-29T02:08:14;11.27;;;10.17;;
17814;SDS011;9031;50.974;11.330;2023-04-29T02:10:40;10.77;;;9.67;;
17814;SDS011;9031;50.974;11.330;2023-04-29T02:13:06;11.97;;;10.80;;
17814;SDS011;9031;50.974;11.330;2023-04-29T02:15:31;10.87;;;9.77;;
17814;SDS011;9031;50.974;11.330;2023-04-29T02:17:57;11.20;;;10.03;;
17814;SDS011;9031;50.974;11.330;2023-04-29T02:20:22;12.27;;;11.03;;
17814;SDS011;9031;50.974;11.330;2023-04-29T02:22:48;11.93;;;10.73;;
17814;SDS011;9031;50.974;11.330;2023-04-29T02:25:13;12.87;;;11.60;;
17814;SDS011;9031;50.974;11.330;2023-04-29T02:27:39;12.57;;;11.27;;
17814;SDS011;9031;50.974;11.330;2023-04-29T02:30:05;12.70;;;11.10;;
17814;SDS011;9031;50.974;11.330;2023-04-29T02:32:31;13.37;;;10.83;;
17814;SDS011;9031;50.974;11.330;2023-04-29T02:34:56;12.37;;;11.17;;
17814;SDS011;9031;50.974;11.330;2023-04-29T02:37:22;11.03;;;9.93;;
17814;SDS011;9031;50.974;11.330;2023-04-29T02:39:47;12.07;;;10.70;;
17814;SDS011;9031;50.974;11.330;2023-04-29T02:42:13;11.70;;;10.60;;
17814;SDS011;9031;50.974;11.330;2023-04-29T02:44:38;11.57;;;10.33;;
17814;SDS011;9031;50.974;11.330;2023-04-29T02:47:05;12.93;;;10.97;;
17814;SDS011;9031;50.974;11.330;2023-04-29T02:49:30;11.30;;;10.17;;
17814;SDS011;9031;50.974;11.330;2023-04-29T02:51:56;10.67;;;9.60;;
17814;SDS011;9031;50.974;11.330;2023-04-29T02:54:22;10.93;;;9.83;;
17814;SDS011;9031;50.974;11.330;2023-04-29T02:56:47;12.80;;;11.50;;
17814;SDS011;9031;50.974;11.330;2023-04-29T02:59:13;12.93;;;11.17;;
17814;SDS011;9031;50.974;11.330;2023-04-29T03:01:38;9.60;;;8.70;;
17814;SDS011;9031;50.974;11.330;2023-04-29T03:04:04;9.33;;;8.43;;
17814;SDS011;9031;50.974;11.330;2023-04-29T03:06:30;9.13;;;8.23;;
17814;SDS011;9031;50.974;11.330;2023-04-29T03:08:56;7.30;;;6.63;;
17814;SDS011;9031;50.974;11.330;2023-04-29T03:11:22;7.33;;;6.63;;
17814;SDS011;9031;50.974;11.330;2023-04-29T03:13:48;7.53;;;6.73;;
17814;SDS011;9031;50.974;11.330;2023-04-29T03:16:14;8.50;;;6.90;;
17814;SDS011;9031;50.974;11.330;2023-04-29T03:18:40;11.03;;;6.50;;
17814;SDS011;9031;50.974;11.330;2023-04-29T03:21:09;7.50;;;6.17;;
17814;SDS011;9031;50.974;11.330;2023-04-29T03:23:35;6.63;;;6.03;;
17814;SDS011;9031;50.974;11.330;2023-04-29T03:26:03;8.23;;;7.10;;
17814;SDS011;9031;50.974;11.330;2023-04-29T03:28:28;8.13;;;6.73;;
17814;SDS011;9031;50.974;11.330;2023-04-29T03:30:54;8.50;;;7.50;;
17814;SDS011;9031;50.974;11.330;2023-04-29T03:33:20;8.10;;;7.30;;
17814;SDS011;9031;50.974;11.330;2023-04-29T03:35:46;8.57;;;7.67;;
17814;SDS011;9031;50.974;11.330;2023-04-29T03:38:11;8.77;;;7.90;;
17814;SDS011;9031;50.974;11.330;2023-04-29T03:40:37;9.03;;;7.83;;
17814;SDS011;9031;50.974;11.330;2023-04-29T03:43:02;9.07;;;8.17;;
17814;SDS011;9031;50.974;11.330;2023-04-29T03:45:28;12.27;;;8.77;;
17814;SDS011;9031;50.974;11.330;2023-04-29T03:47:53;9.23;;;8.23;;
17814;SDS011;9031;50.974;11.330;2023-04-29T03:50:19;9.77;;;8.60;;
17814;SDS011;9031;50.974;11.330;2023-04-29T03:52:45;9.90;;;8.90;;
17814;SDS011;9031;50.974;11.330;2023-04-29T03:55:10;9.30;;;8.40;;
17814;SDS011;9031;50.974;11.330;2023-04-29T03:57:36;9.07;;;8.17;;
17814;SDS011;9031;50.974;11.330;2023-04-29T04:00:03;10.23;;;8.40;;
17814;SDS011;9031;50.974;11.330;2023-04-29T04:02:29;9.50;;;8.60;;
17814;SDS011;9031;50.974;11.330;2023-04-29T04:04:54;9.10;;;7.77;;
17814;SDS011;9031;50.974;11.330;2023-04-29T04:07:20;8.63;;;7.73;;
17814;SDS011;9031;50.974;11.330;2023-04-29T04:09:45;8.53;;;7.63;;
17814;SDS011;9031;50.974;11.330;2023-04-29T04:12:11;9.63;;;8.63;;
17814;SDS011;9031;50.974;11.330;2023-04-29T04:14:36;9.60;;;8.23;;
17814;SDS011;9031;50.974;11.330;2023-04-29T04:17:02;9.10;;;7.80;;
17814;SDS011;9031;50.974;11.330;2023-04-29T04:19:29;10.17;;;9.10;;
17814;SDS011;9031;50.974;11.330;2023-04-29T04:21:54;11.43;;;8.03;;
17814;SDS011;9031;50.974;11.330;2023-04-29T04:24:20;8.83;;;7.93;;
17814;SDS011;9031;50.974;11.330;2023-04-29T04:26:46;9.10;;;8.20;;
17814;SDS011;9031;50.974;11.330;2023-04-29T04:29:12;11.40;;;8.17;;
17814;SDS011;9031;50.974;11.330;2023-04-29T04:31:38;10.00;;;7.50;;
17814;SDS011;9031;50.974;11.330;2023-04-29T04:34:03;8.70;;;7.80;;
17814;SDS011;9031;50.974;11.330;2023-04-29T04:36:29;8.90;;;7.57;;
17814;SDS011;9031;50.974;11.330;2023-04-29T04:38:54;8.27;;;7.47;;
17814;SDS011;9031;50.974;11.330;2023-04-29T04:41:20;7.47;;;6.47;;
17814;SDS011;9031;50.974;11.330;2023-04-29T04:43:45;8.87;;;6.87;;
17814;SDS011;9031;50.974;11.330;2023-04-29T04:46:12;7.97;;;7.17;;
17814;SDS011;9031;50.974;11.330;2023-04-29T04:48:39;7.90;;;6.27;;
17814;SDS011;9031;50.974;11.330;2023-04-29T04:51:08;7.53;;;6.70;;
17814;SDS011;9031;50.974;11.330;2023-04-29T04:53:34;8.10;;;6.97;;
17814;SDS011;9031;50.974;11.330;2023-04-29T04:56:01;8.67;;;6.70;;
17814;SDS011;9031;50.974;11.330;2023-04-29T04:58:27;6.93;;;6.27;;
17814;SDS011;9031;50.974;11.330;2023-04-29T05:00:52;7.50;;;6.77;;
17814;SDS011;9031;50.974;11.330;2023-04-29T05:03:18;7.60;;;6.83;;
17814;SDS011;9031;50.974;11.330;2023-04-29T05:05:43;6.47;;;5.77;;
17814;SDS011;9031;50.974;11.330;2023-04-29T05:08:09;7.33;;;6.37;;
17814;SDS011;9031;50.974;11.330;2023-04-29T05:10:35;6.80;;;6.10;;
17814;SDS011;9031;50.974;11.330;2023-04-29T05:13:01;6.80;;;6.07;;
17814;SDS011;9031;50.974;11.330;2023-04-29T05:15:26;6.67;;;5.97;;
17814;SDS011;9031;50.974;11.330;2023-04-29T05:17:52;6.80;;;6.10;;
17814;SDS011;9031;50.974;11.330;2023-04-29T05:20:18;6.90;;;6.07;;
17814;SDS011;9031;50.974;11.330;2023-04-29T05:22:45;7.00;;;6.30;;
17814;SDS011;9031;50.974;11.330;2023-04-29T05:25:10;7.57;;;6.80;;
17814;SDS011;9031;50.974;11.330;2023-04-29T05:27:36;7.30;;;6.60;;
17814;SDS011;9031;50.974;11.330;2023-04-29T05:30:02;7.57;;;6.60;;
17814;SDS011;9031;50.974;11.330;2023-04-29T05:32:27;7.40;;;6.53;;
17814;SDS011;9031;50.974;11.330;2023-04-29T05:34:53;7.97;;;7.17;;
17814;SDS011;9031;50.974;11.330;2023-04-29T05:37:19;8.20;;;6.60;;
17814;SDS011;9031;50.974;11.330;2023-04-29T05:39:44;8.27;;;6.47;;
17814;SDS011;9031;50.974;11.330;2023-04-29T05:42:09;8.53;;;7.10;;
17814;SDS011;9031;50.974;11.330;2023-04-29T05:44:35;7.87;;;7.17;;
17814;SDS011;9031;50.974;11.330;2023-04-29T05:47:00;8.37;;;6.77;;
17814;SDS011;9031;50.974;11.330;2023-04-29T05:49:26;7.90;;;7.10;;
17814;SDS011;9031;50.974;11.330;2023-04-29T05:51:51;6.87;;;6.20;;
17814;SDS011;9031;50.974;11.330;2023-04-29T05:54:17;7.67;;;6.93;;
17814;SDS011;9031;50.974;11.330;2023-04-29T05:56:42;7.87;;;6.77;;
17814;SDS011;9031;50.974;11.330;2023-04-29T05:59:08;7.50;;;6.80;;
17814;SDS011;9031;50.974;11.330;2023-04-29T06:01:33;8.97;;;7.33;;
17814;SDS011;9031;50.974;11.330;2023-04-29T06:03:59;8.73;;;6.83;;
17814;SDS011;9031;50.974;11.330;2023-04-29T06:06:25;8.67;;;7.33;;
17814;SDS011;9031;50.974;11.330;2023-04-29T06:08:50;7.50;;;6.80;;
17814;SDS011;9031;50.974;11.330;2023-04-29T06:11:17;8.23;;;7.43;;
17814;SDS011;9031;50.974;11.330;2023-04-29T06:13:42;8.60;;;7.60;;
17814;SDS011;9031;50.974;11.330;2023-04-29T06:16:08;9.43;;;7.47;;
17814;SDS011;9031;50.974;11.330;2023-04-29T06:18:35;8.67;;;7.80;;
17814;SDS011;9031;50.974;11.330;2023-04-29T06:21:02;8.27;;;7.47;;
17814;SDS011;9031;50.974;11.330;2023-04-29T06:23:27;8.63;;;7.33;;
17814;SDS011;9031;50.974;11.330;2023-04-29T06:25:53;9.03;;;7.20;;
17814;SDS011;9031;50.974;11.330;2023-04-29T06:28:18;9.63;;;8.13;;
17814;SDS011;9031;50.974;11.330;2023-04-29T06:30:44;9.10;;;8.20;;
17814;SDS011;9031;50.974;11.330;2023-04-29T06:33:10;8.53;;;7.63;;
17814;SDS011;9031;50.974;11.330;2023-04-29T06:35:39;8.97;;;7.90;;
17814;SDS011;9031;50.974;11.330;2023-04-29T06:38:05;9.87;;;8.60;;
17814;SDS011;9031;50.974;11.330;2023-04-29T06:40:32;9.93;;;8.67;;
17814;SDS011;9031;50.974;11.330;2023-04-29T06:42:58;10.17;;;9.03;;
17814;SDS011;9031;50.974;11.330;2023-04-29T06:45:23;9.50;;;8.53;;
17814;SDS011;9031;50.974;11.330;2023-04-29T06:47:49;9.80;;;8.67;;
17814;SDS011;9031;50.974;11.330;2023-04-29T06:50:15;9.80;;;8.33;;
17814;SDS011;9031;50.974;11.330;2023-04-29T06:52:40;8.43;;;7.53;;
17814;SDS011;9031;50.974;11.330;2023-04-29T06:55:06;10.77;;;7.50;;
17814;SDS011;9031;50.974;11.330;2023-04-29T06:57:32;10.70;;;8.23;;
17814;SDS011;9031;50.974;11.330;2023-04-29T06:59:58;10.17;;;8.73;;
17814;SDS011;9031;50.974;11.330;2023-04-29T07:02:23;10.87;;;8.73;;
17814;SDS011;9031;50.974;11.330;2023-04-29T07:04:48;11.00;;;9.80;;
17814;SDS011;9031;50.974;11.330;2023-04-29T07:07:14;8.90;;;7.47;;
17814;SDS011;9031;50.974;11.330;2023-04-29T07:09:40;8.30;;;7.50;;
17814;SDS011;9031;50.974;11.330;2023-04-29T07:12:06;7.77;;;6.93;;
17814;SDS011;9031;50.974;11.330;2023-04-29T07:14:31;9.83;;;7.37;;
17814;SDS011;9031;50.974;11.330;2023-04-29T07:16:57;8.23;;;7.30;;
17814;SDS011;9031;50.974;11.330;2023-04-29T07:19:22;8.67;;;6.77;;
17814;SDS011;9031;50.974;11.330;2023-04-29T07:21:48;7.70;;;6.53;;
17814;SDS011;9031;50.974;11.330;2023-04-29T07:24:13;7.80;;;6.23;;
17814;SDS011;9031;50.974;11.330;2023-04-29T07:26:39;7.40;;;6.00;;
17814;SDS011;9031;50.974;11.330;2023-04-29T07:29:06;6.53;;;5.93;;
17814;SDS011;9031;50.974;11.330;2023-04-29T07:31:32;7.50;;;6.00;;
17814;SDS011;9031;50.974;11.330;2023-04-29T07:33:58;7.17;;;6.43;;
17814;SDS011;9031;50.974;11.330;2023-04-29T07:36:23;6.73;;;5.43;;
17814;SDS011;9031;50.974;11.330;2023-04-29T07:38:49;7.40;;;5.53;;
17814;SDS011;9031;50.974;11.330;2023-04-29T07:41:14;5.97;;;5.30;;
17814;SDS011;9031;50.974;11.330;2023-04-29T07:43:40;6.07;;;5.47;;
17814;SDS011;9031;50.974;11.330;2023-04-29T07:46:05;6.87;;;6.00;;
17814;SDS011;9031;50.974;11.330;2023-04-29T07:48:35;6.80;;;6.03;;
17814;SDS011;9031;50.974;11.330;2023-04-29T07:51:02;7.57;;;6.23;;
17814;SDS011;9031;50.974;11.330;2023-04-29T07:53:28;6.40;;;5.80;;
17814;SDS011;9031;50.974;11.330;2023-04-29T07:55:53;6.60;;;5.13;;
17814;SDS011;9031;50.974;11.330;2023-04-29T07:58:19;8.87;;;6.37;;
17814;SDS011;9031;50.974;11.330;2023-04-29T08:00:44;8.03;;;5.80;;
17814;SDS011;9031;50.974;11.330;2023-04-29T08:03:11;6.37;;;5.77;;
17814;SDS011;9031;50.974;11.330;2023-04-29T08:05:37;7.83;;;5.37;;
17814;SDS011;9031;50.974;11.330;2023-04-29T08:08:02;7.67;;;5.97;;
17814;SDS011;9031;50.974;11.330;2023-04-29T08:10:28;7.30;;;6.13;;
17814;SDS011;9031;50.974;11.330;2023-04-29T08:12:53;6.80;;;6.10;;
17814;SDS011;9031;50.974;11.330;2023-04-29T08:15:19;7.77;;;6.70;;
17814;SDS011;9031;50.974;11.330;2023-04-29T08:17:44;7.73;;;6.57;;
17814;SDS011;9031;50.974;11.330;2023-04-29T08:20:10;7.77;;;6.47;;
17814;SDS011;9031;50.974;11.330;2023-04-29T08:22:35;7.37;;;6.67;;
17814;SDS011;9031;50.974;11.330;2023-04-29T08:25:02;7.30;;;6.60;;
17814;SDS011;9031;50.974;11.330;2023-04-29T08:27:29;9.50;;;6.97;;
17814;SDS011;9031;50.974;11.330;2023-04-29T08:29:55;9.00;;;7.27;;
17814;SDS011;9031;50.974;11.330;2023-04-29T08:32:20;8.87;;;6.73;;
17814;SDS011;9031;50.974;11.330;2023-04-29T08:34:46;7.83;;;6.83;;
17814;SDS011;9031;50.974;11.330;2023-04-29T08:37:12;9.27;;;7.70;;
17814;SDS011;9031;50.974;11.330;2023-04-29T08:39:39;7.43;;;6.73;;
17814;SDS011;9031;50.974;11.330;2023-04-29T08:42:08;8.33;;;7.43;;
17814;SDS011;9031;50.974;11.330;2023-04-29T08:44:34;9.57;;;7.27;;
17814;SDS011;9031;50.974;11.330;2023-04-29T08:47:01;8.97;;;8.00;;
17814;SDS011;9031;50.974;11.330;2023-04-29T08:49:30;8.20;;;7.40;;
17814;SDS011;9031;50.974;11.330;2023-04-29T08:51:57;8.53;;;6.90;;
17814;SDS011;9031;50.974;11.330;2023-04-29T08:54:23;8.40;;;7.50;;
17814;SDS011;9031;50.974;11.330;2023-04-29T08:56:48;9.83;;;7.53;;
17814;SDS011;9031;50.974;11.330;2023-04-29T08:59:16;9.30;;;7.73;;
17814;SDS011;9031;50.974;11.330;2023-04-29T09:01:42;8.63;;;6.80;;
17814;SDS011;9031;50.974;11.330;2023-04-29T09:06:43;7.70;;;6.90;;
17814;SDS011;9031;50.974;11.330;2023-04-29T09:09:10;8.00;;;7.20;;
17814;SDS011;9031;50.974;11.330;2023-04-29T09:11:38;7.63;;;6.83;;
17814;SDS011;9031;50.974;11.330;2023-04-29T09:14:04;9.43;;;7.27;;
17814;SDS011;9031;50.974;11.330;2023-04-29T09:16:30;7.67;;;6.60;;
17814;SDS011;9031;50.974;11.330;2023-04-29T09:18:55;6.77;;;6.07;;
17814;SDS011;9031;50.974;11.330;2023-04-29T09:23:51;6.40;;;5.80;;
17814;SDS011;9031;50.974;11.330;2023-04-29T09:26:21;7.87;;;6.10;;
17814;SDS011;9031;50.974;11.330;2023-04-29T09:31:33;7.07;;;6.37;;
17814;SDS011;9031;50.974;11.330;2023-04-29T09:33:59;8.90;;;6.43;;
17814;SDS011;9031;50.974;11.330;2023-04-29T09:39:11;12.37;;;6.80;;
17814;SDS011;9031;50.974;11.330;2023-04-29T09:41:38;10.23;;;6.97;;
17814;SDS011;9031;50.974;11.330;2023-04-29T09:44:16;7.57;;;6.77;;
17814;SDS011;9031;50.974;11.330;2023-04-29T09:46:42;8.63;;;6.37;;
17814;SDS011;9031;50.974;11.330;2023-04-29T09:49:21;9.47;;;6.83;;
17814;SDS011;9031;50.974;11.330;2023-04-29T09:51:52;7.50;;;6.40;;
17814;SDS011;9031;50.974;11.330;2023-04-29T09:54:26;8.27;;;6.67;;
17814;SDS011;9031;50.974;11.330;2023-04-29T09:56:54;7.67;;;6.60;;
17814;SDS011;9031;50.974;11.330;2023-04-29T09:59:20;8.83;;;7.07;;
17814;SDS011;9031;50.974;11.330;2023-04-29T10:01:47;8.57;;;7.60;;
17814;SDS011;9031;50.974;11.330;2023-04-29T10:04:14;7.97;;;6.90;;
17814;SDS011;9031;50.974;11.330;2023-04-29T10:06:41;9.23;;;7.03;;
17814;SDS011;9031;50.974;11.330;2023-04-29T10:09:08;8.07;;;7.27;;
17814;SDS011;9031;50.974;11.330;2023-04-29T10:11:40;7.97;;;7.00;;
17814;SDS011;9031;50.974;11.330;2023-04-29T10:14:10;8.17;;;6.67;;
17814;SDS011;9031;50.974;11.330;2023-04-29T10:16:48;8.43;;;7.40;;
17814;SDS011;9031;50.974;11.330;2023-04-29T10:19:18;7.80;;;6.53;;
17814;SDS011;9031;50.974;11.330;2023-04-29T10:21:58;7.40;;;6.70;;
17814;SDS011;9031;50.974;11.330;2023-04-29T10:24:28;9.63;;;7.17;;
17814;SDS011;9031;50.974;11.330;2023-04-29T10:26:56;7.40;;;6.60;;
17814;SDS011;9031;50.974;11.330;2023-04-29T10:29:23;8.20;;;6.97;;
17814;SDS011;9031;50.974;11.330;2023-04-29T10:31:52;8.00;;;7.13;;
17814;SDS011;9031;50.974;11.330;2023-04-29T10:34:19;8.43;;;7.30;;
17814;SDS011;9031;50.974;11.330;2023-04-29T10:36:47;9.20;;;7.10;;
17814;SDS011;9031;50.974;11.330;2023-04-29T10:39:35;7.90;;;7.10;;
17814;SDS011;9031;50.974;11.330;2023-04-29T10:42:04;7.53;;;6.77;;
17814;SDS011;9031;50.974;11.330;2023-04-29T10:50:30;7.90;;;6.77;;
17814;SDS011;9031;50.974;11.330;2023-04-29T10:52:57;7.23;;;6.53;;
17814;SDS011;9031;50.974;11.330;2023-04-29T10:55:25;6.83;;;6.20;;
17814;SDS011;9031;50.974;11.330;2023-04-29T10:57:54;7.20;;;6.50;;
17814;SDS011;9031;50.974;11.330;2023-04-29T11:00:28;8.23;;;7.33;;
17814;SDS011;9031;50.974;11.330;2023-04-29T11:02:57;8.27;;;7.23;;
17814;SDS011;9031;50.974;11.330;2023-04-29T11:05:34;8.97;;;7.70;;
17814;SDS011;9031;50.974;11.330;2023-04-29T11:08:19;7.67;;;6.87;;
17814;SDS011;9031;50.974;11.330;2023-04-29T11:10:49;8.13;;;7.33;;
17814;SDS011;9031;50.974;11.330;2023-04-29T11:13:23;8.07;;;6.90;;
17814;SDS011;9031;50.974;11.330;2023-04-29T11:16:02;8.93;;;7.30;;
17814;SDS011;9031;50.974;11.330;2023-04-29T11:18:32;7.87;;;7.17;;
17814;SDS011;9031;50.974;11.330;2023-04-29T11:23:36;7.80;;;7.10;;
17814;SDS011;9031;50.974;11.330;2023-04-29T11:26:05;7.70;;;6.83;;
17814;SDS011;9031;50.974;11.330;2023-04-29T11:28:30;7.93;;;7.13;;
17814;SDS011;9031;50.974;11.330;2023-04-29T11:30:57;7.80;;;7.00;;
17814;SDS011;9031;50.974;11.330;2023-04-29T11:33:23;7.70;;;6.90;;
17814;SDS011;9031;50.974;11.330;2023-04-29T11:35:51;8.53;;;6.93;;
17814;SDS011;9031;50.974;11.330;2023-04-29T11:38:16;8.20;;;7.40;;
17814;SDS011;9031;50.974;11.330;2023-04-29T11:40:48;9.40;;;8.13;;
17814;SDS011;9031;50.974;11.330;2023-04-29T11:43:17;12.27;;;10.07;;
17814;SDS011;9031;50.974;11.330;2023-04-29T11:45:43;12.00;;;9.50;;
17814;SDS011;9031;50.974;11.330;2023-04-29T11:48:22;13.00;;;10.93;;
17814;SDS011;9031;50.974;11.330;2023-04-29T11:50:50;13.20;;;10.83;;
17814;SDS011;9031;50.974;11.330;2023-04-29T11:53:20;11.93;;;10.70;;
17814;SDS011;9031;50.974;11.330;2023-04-29T11:55:49;13.33;;;11.93;;
17814;SDS011;9031;50.974;11.330;2023-04-29T11:58:16;16.87;;;12.80;;
17814;SDS011;9031;50.974;11.330;2023-04-29T12:00:42;13.67;;;11.90;;
17814;SDS011;9031;50.974;11.330;2023-04-29T12:03:12;14.57;;;13.00;;
17814;SDS011;9031;50.974;11.330;2023-04-29T12:05:39;14.63;;;13.03;;
17814;SDS011;9031;50.974;11.330;2023-04-29T12:08:26;14.70;;;12.80;;
17814;SDS011;9031;50.974;11.330;2023-04-29T12:10:54;16.50;;;14.00;;
17814;SDS011;9031;50.974;11.330;2023-04-29T12:13:21;14.37;;;12.63;;
17814;SDS011;9031;50.974;11.330;2023-04-29T12:15:49;14.67;;;12.60;;
17814;SDS011;9031;50.974;11.330;2023-04-29T12:18:16;13.00;;;11.60;;
17814;SDS011;9031;50.974;11.330;2023-04-29T12:20:44;14.00;;;12.50;;
17814;SDS011;9031;50.974;11.330;2023-04-29T12:25:37;12.87;;;11.53;;
17814;SDS011;9031;50.974;11.330;2023-04-29T12:28:03;12.43;;;11.23;;
17814;SDS011;9031;50.974;11.330;2023-04-29T12:30:28;13.00;;;11.07;;
17814;SDS011;9031;50.974;11.330;2023-04-29T12:32:54;12.77;;;11.53;;
17814;SDS011;9031;50.974;11.330;2023-04-29T12:35:20;12.43;;;10.90;;
17814;SDS011;9031;50.974;11.330;2023-04-29T12:37:49;13.73;;;11.10;;
17814;SDS011;9031;50.974;11.330;2023-04-29T12:40:15;12.13;;;10.93;;
17814;SDS011;9031;50.974;11.330;2023-04-29T12:42:41;13.03;;;11.73;;
17814;SDS011;9031;50.974;11.330;2023-04-29T12:45:12;14.03;;;12.47;;
17814;SDS011;9031;50.974;11.330;2023-04-29T12:47:50;13.87;;;12.37;;
17814;SDS011;9031;50.974;11.330;2023-04-29T12:50:16;13.97;;;12.50;;
17814;SDS011;9031;50.974;11.330;2023-04-29T12:52:41;13.03;;;11.63;;
17814;SDS011;9031;50.974;11.330;2023-04-29T12:55:07;13.70;;;12.30;;
17814;SDS011;9031;50.974;11.330;2023-04-29T12:57:32;15.10;;;12.90;;
17814;SDS011;9031;50.974;11.330;2023-04-29T12:59:58;15.23;;;12.30;;
17814;SDS011;9031;50.974;11.330;2023-04-29T13:02:23;14.60;;;12.80;;
17814;SDS011;9031;50.974;11.330;2023-04-29T13:04:49;14.63;;;13.13;;
17814;SDS011;9031;50.974;11.330;2023-04-29T13:07:15;14.83;;;13.23;;
17814;SDS011;9031;50.974;11.330;2023-04-29T13:09:40;13.80;;;12.47;;
17814;SDS011;9031;50.974;11.330;2023-04-29T13:12:06;15.73;;;14.13;;
17814;SDS011;9031;50.974;11.330;2023-04-29T13:14:33;16.17;;;13.13;;
17814;SDS011;9031;50.974;11.330;2023-04-29T13:16:58;14.43;;;12.23;;
17814;SDS011;9031;50.974;11.330;2023-04-29T13:19:24;13.67;;;12.37;;
17814;SDS011;9031;50.974;11.330;2023-04-29T13:21:49;13.70;;;12.30;;
17814;SDS011;9031;50.974;11.330;2023-04-29T13:24:15;14.40;;;12.23;;
17814;SDS011;9031;50.974;11.330;2023-04-29T13:26:42;16.23;;;12.70;;
17814;SDS011;9031;50.974;11.330;2023-04-29T13:29:08;13.00;;;11.70;;
17814;SDS011;9031;50.974;11.330;2023-04-29T13:31:33;12.67;;;11.37;;
17814;SDS011;9031;50.974;11.330;2023-04-29T13:33:59;13.50;;;11.53;;
17814;SDS011;9031;50.974;11.330;2023-04-29T13:36:24;13.53;;;11.97;;
17814;SDS011;9031;50.974;11.330;2023-04-29T13:38:52;12.93;;;11.10;;
17814;SDS011;9031;50.974;11.330;2023-04-29T13:41:17;12.20;;;10.90;;
17814;SDS011;9031;50.974;11.330;2023-04-29T13:43:42;12.03;;;10.97;;
17814;SDS011;9031;50.974;11.330;2023-04-29T13:46:08;12.00;;;10.80;;
17814;SDS011;9031;50.974;11.330;2023-04-29T13:48:34;12.43;;;11.20;;
17814;SDS011;9031;50.974;11.330;2023-04-29T13:50:59;12.13;;;10.87;;
17814;SDS011;9031;50.974;11.330;2023-04-29T13:53:25;13.13;;;11.07;;
17814;SDS011;9031;50.974;11.330;2023-04-29T13:55:51;13.10;;;11.70;;
17814;SDS011;9031;50.974;11.330;2023-04-29T13:58:17;12.13;;;10.93;;
17814;SDS011;9031;50.974;11.330;2023-04-29T14:00:42;12.70;;;11.40;;
17814;SDS011;9031;50.974;11.330;2023-04-29T14:03:08;11.30;;;9.33;;
17814;SDS011;9031;50.974;11.330;2023-04-29T14:05:33;9.50;;;8.27;;
17814;SDS011;9031;50.974;11.330;2023-04-29T14:07:59;10.37;;;8.40;;
17814;SDS011;9031;50.974;11.330;2023-04-29T14:10:25;10.57;;;8.77;;
17814;SDS011;9031;50.974;11.330;2023-04-29T14:12:50;8.43;;;7.63;;
17814;SDS011;9031;50.974;11.330;2023-04-29T14:15:15;9.37;;;8.23;;
17814;SDS011;9031;50.974;11.330;2023-04-29T14:17:41;14.33;;;7.93;;
17814;SDS011;9031;50.974;11.330;2023-04-29T14:20:07;8.47;;;7.67;;
17814;SDS011;9031;50.974;11.330;2023-04-29T14:22:33;9.23;;;8.23;;
17814;SDS011;9031;50.974;11.330;2023-04-29T14:24:58;8.83;;;7.53;;
17814;SDS011;9031;50.974;11.330;2023-04-29T14:27:24;10.83;;;8.10;;
17814;SDS011;9031;50.974;11.330;2023-04-29T14:29:49;7.97;;;7.17;;
17814;SDS011;9031;50.974;11.330;2023-04-29T14:32:15;8.13;;;7.33;;
17814;SDS011;9031;50.974;11.330;2023-04-29T14:34:40;7.73;;;6.90;;
17814;SDS011;9031;50.974;11.330;2023-04-29T14:37:06;8.60;;;7.60;;
17814;SDS011;9031;50.974;11.330;2023-04-29T14:39:32;7.57;;;6.97;;
17814;SDS011;9031;50.974;11.330;2023-04-29T14:41:57;8.97;;;6.80;;
17814;SDS011;9031;50.974;11.330;2023-04-29T14:44:23;8.53;;;7.73;;
17814;SDS011;9031;50.974;11.330;2023-04-29T14:46:48;7.87;;;7.17;;
17814;SDS011;9031;50.974;11.330;2023-04-29T14:49:14;7.40;;;6.80;;
17814;SDS011;9031;50.974;11.330;2023-04-29T14:51:39;8.27;;;7.47;;
17814;SDS011;9031;50.974;11.330;2023-04-29T14:54:05;8.20;;;7.40;;
17814;SDS011;9031;50.974;11.330;2023-04-29T14:56:30;7.47;;;6.77;;
17814;SDS011;9031;50.974;11.330;2023-04-29T14:58:56;7.87;;;7.17;;
17814;SDS011;9031;50.974;11.330;2023-04-29T15:01:21;7.73;;;6.90;;
17814;SDS011;9031;50.974;11.330;2023-04-29T15:03:47;8.23;;;6.60;;
17814;SDS011;9031;50.974;11.330;2023-04-29T15:06:13;7.70;;;6.90;;
17814;SDS011;9031;50.974;11.330;2023-04-29T15:08:38;8.57;;;6.47;;